createdAt,value
2023-04-21T00:00:54.166Z,9.61
2023-04-21T00:03:22.784Z,9.70
2023-04-21T00:05:51.078Z,9.48
2023-04-21T00:08:19.140Z,9.58
2023-04-21T00:10:47.091Z,9.63
2023-04-21T00:13:14.432Z,9.56
2023-04-21T00:15:41.937Z,9.40
2023-04-21T00:18:10.167Z,9.30
2023-04-21T00:20:37.440Z,9.34
2023-04-21T00:23:04.356Z,9.38
2023-04-21T00:25:31.190Z,9.39
2023-04-21T00:27:58.180Z,9.40
2023-04-21T00:30:25.244Z,9.24
2023-04-21T00:32:52.083Z,9.29
2023-04-21T00:35:19.038Z,9.33
2023-04-21T00:37:46.330Z,9.26
2023-04-21T00:40:13.886Z,9.20
2023-04-21T00:42:40.875Z,9.05
2023-04-21T00:45:08.508Z,9.09
2023-04-21T00:47:35.456Z,9.14
2023-04-21T00:50:03.440Z,9.10
2023-04-21T00:52:30.596Z,9.20
2023-04-21T00:54:57.623Z,9.08
2023-04-21T00:57:24.359Z,9.17
2023-04-21T00:59:52.216Z,9.12
2023-04-21T01:02:19.133Z,8.97
2023-04-21T01:04:46.408Z,8.92
2023-04-21T01:07:13.167Z,9.02
2023-04-21T01:09:40.372Z,8.95
2023-04-21T01:12:11.722Z,9.09
2023-04-21T01:14:41.267Z,9.02
2023-04-21T01:17:08.962Z,9.10
2023-04-21T01:19:41.501Z,9.06
2023-04-21T01:22:13.000Z,9.03
2023-04-21T01:24:42.728Z,8.90
2023-04-21T01:27:11.843Z,9.04
2023-04-21T01:29:40.838Z,8.88
2023-04-21T01:32:10.563Z,8.72
2023-04-21T01:34:38.228Z,8.76
2023-04-21T01:37:08.126Z,8.72
2023-04-21T01:39:35.272Z,8.73
2023-04-21T01:42:02.058Z,8.85
2023-04-21T01:44:28.828Z,8.65
2023-04-21T01:46:56.004Z,8.63
2023-04-21T01:49:22.767Z,8.63
2023-04-21T01:51:49.799Z,8.62
2023-04-21T01:54:16.582Z,8.59
2023-04-21T01:56:43.406Z,8.58
2023-04-21T01:59:10.733Z,8.60
2023-04-21T02:01:37.570Z,8.64
2023-04-21T02:04:06.723Z,8.67
2023-04-21T02:06:33.885Z,8.60
2023-04-21T02:09:00.627Z,8.59
2023-04-21T02:11:27.334Z,8.62
2023-04-21T02:13:55.160Z,8.52
2023-04-21T02:16:26.450Z,8.54
2023-04-21T02:18:57.247Z,8.49
2023-04-21T02:21:25.193Z,8.46
2023-04-21T02:23:52.474Z,8.43
2023-04-21T02:26:19.980Z,8.46
2023-04-21T02:28:47.488Z,8.40
2023-04-21T02:31:14.658Z,8.48
2023-04-21T02:33:41.813Z,8.38
2023-04-21T02:36:09.052Z,8.29
2023-04-21T02:38:35.835Z,8.29
2023-04-21T02:41:02.779Z,8.27
2023-04-21T02:43:29.980Z,8.28
2023-04-21T02:45:57.033Z,8.28
2023-04-21T02:48:23.963Z,8.26
2023-04-21T02:50:51.167Z,8.19
2023-04-21T02:53:18.177Z,8.28
2023-04-21T02:55:44.886Z,8.31
2023-04-21T02:58:11.690Z,8.28
2023-04-21T03:00:38.461Z,8.29
2023-04-21T03:03:05.615Z,8.26
2023-04-21T03:05:32.482Z,8.27
2023-04-21T03:07:59.273Z,8.38
2023-04-21T03:10:26.100Z,8.44
2023-04-21T03:12:53.838Z,8.37
2023-04-21T03:15:21.296Z,8.42
2023-04-21T03:17:48.367Z,8.36
2023-04-21T03:20:16.417Z,8.44
2023-04-21T03:22:43.091Z,8.34
2023-04-21T03:25:09.906Z,8.43
2023-04-21T03:27:36.586Z,8.53
2023-04-21T03:30:03.482Z,8.55
2023-04-21T03:32:30.345Z,8.65
2023-04-21T03:34:57.227Z,8.53
2023-04-21T03:37:24.137Z,8.50
2023-04-21T03:39:50.903Z,8.56
2023-04-21T03:42:17.713Z,8.50
2023-04-21T03:44:50.442Z,8.53
2023-04-21T03:47:18.191Z,8.47
2023-04-21T03:49:44.994Z,8.45
2023-04-21T03:52:12.556Z,8.46
2023-04-21T03:54:39.631Z,8.56
2023-04-21T03:57:06.364Z,8.45
2023-04-21T03:59:33.378Z,8.41
2023-04-21T04:02:00.247Z,8.44
2023-04-21T04:04:27.546Z,8.54
2023-04-21T04:06:54.387Z,8.62
2023-04-21T04:09:21.312Z,8.47
2023-04-21T04:11:48.165Z,8.56
2023-04-21T04:14:15.131Z,8.50
2023-04-21T04:16:41.972Z,8.49
2023-04-21T04:19:09.449Z,8.43
2023-04-21T04:21:36.299Z,8.40
2023-04-21T04:24:03.537Z,8.28
2023-04-21T04:26:30.347Z,8.42
2023-04-21T04:28:57.363Z,8.31
2023-04-21T04:31:25.864Z,8.45
2023-04-21T04:33:54.884Z,8.32
2023-04-21T04:36:23.292Z,8.33
2023-04-21T04:38:50.136Z,8.30
2023-04-21T04:41:17.142Z,8.28
2023-04-21T04:43:44.289Z,8.44
2023-04-21T04:46:13.346Z,8.26
2023-04-21T04:48:40.786Z,8.35
2023-04-21T04:51:07.826Z,8.42
2023-04-21T04:53:35.611Z,8.50
2023-04-21T04:56:02.512Z,8.36
2023-04-21T04:58:29.237Z,8.31
2023-04-21T05:00:56.235Z,8.31
2023-04-21T05:03:23.093Z,8.26
2023-04-21T05:05:49.898Z,8.43
2023-04-21T05:08:18.067Z,8.35
2023-04-21T05:10:45.820Z,8.42
2023-04-21T05:13:12.823Z,8.47
2023-04-21T05:15:39.778Z,8.63
2023-04-21T05:18:07.945Z,8.50
2023-04-21T05:20:34.718Z,8.57
2023-04-21T05:23:01.417Z,8.73
2023-04-21T05:25:28.736Z,8.80
2023-04-21T05:27:55.988Z,8.86
2023-04-21T05:30:23.105Z,8.97
2023-04-21T05:32:50.657Z,8.98
2023-04-21T05:35:17.549Z,9.04
2023-04-21T05:37:44.244Z,9.08
2023-04-21T05:40:11.296Z,9.11
2023-04-21T05:42:38.576Z,9.19
2023-04-21T05:45:06.279Z,9.23
2023-04-21T05:47:33.123Z,9.28
2023-04-21T05:50:00.256Z,9.16
2023-04-21T05:52:27.068Z,9.29
2023-04-21T05:54:53.839Z,9.27
2023-04-21T05:57:21.188Z,9.45
2023-04-21T05:59:48.172Z,9.59
2023-04-21T06:02:15.288Z,9.68
2023-04-21T06:04:42.312Z,9.82
2023-04-21T06:07:10.743Z,10.00
2023-04-21T06:09:38.887Z,10.05
2023-04-21T06:12:06.317Z,10.21
2023-04-21T06:14:33.464Z,10.14
2023-04-21T06:17:00.302Z,10.22
2023-04-21T06:19:27.233Z,10.35
2023-04-21T06:21:54.276Z,10.53
2023-04-21T06:24:25.868Z,10.64
2023-04-21T06:26:53.642Z,10.56
2023-04-21T06:29:21.443Z,10.63
2023-04-21T06:31:48.388Z,10.70
2023-04-21T06:34:15.794Z,10.75
2023-04-21T06:36:43.025Z,10.86
2023-04-21T06:39:09.903Z,10.62
2023-04-21T06:41:36.799Z,10.85
2023-04-21T06:44:03.595Z,10.97
2023-04-21T06:46:30.489Z,10.95
2023-04-21T06:48:57.235Z,10.89
2023-04-21T06:51:24.823Z,11.00
2023-04-21T06:53:51.939Z,11.01
2023-04-21T06:56:18.718Z,11.25
2023-04-21T06:58:47.207Z,11.40
2023-04-21T07:01:14.036Z,11.25
2023-04-21T07:03:41.622Z,11.42
2023-04-21T07:06:08.778Z,11.71
2023-04-21T07:08:35.815Z,11.76
2023-04-21T07:11:02.862Z,11.67
2023-04-21T07:13:30.021Z,11.59
2023-04-21T07:15:56.956Z,11.78
2023-04-21T07:18:23.796Z,11.81
2023-04-21T07:20:50.984Z,11.76
2023-04-21T07:23:18.071Z,11.93
2023-04-21T07:25:44.904Z,11.96
2023-04-21T07:28:11.764Z,12.04
2023-04-21T07:30:38.663Z,12.35
2023-04-21T07:33:05.763Z,12.35
2023-04-21T07:35:32.626Z,12.23
2023-04-21T07:37:59.481Z,12.34
2023-04-21T07:40:26.671Z,12.54
2023-04-21T07:42:53.410Z,12.54
2023-04-21T07:45:20.255Z,12.75
2023-04-21T07:47:47.281Z,13.04
2023-04-21T07:50:14.269Z,13.15
2023-04-21T07:52:41.262Z,13.12
2023-04-21T07:55:08.269Z,13.24
2023-04-21T07:57:39.116Z,13.35
2023-04-21T08:00:07.215Z,13.42
2023-04-21T08:02:34.151Z,13.68
2023-04-21T08:05:01.011Z,13.80
2023-04-21T08:07:28.005Z,13.76
2023-04-21T08:09:55.053Z,13.56
2023-04-21T08:12:21.734Z,13.36
2023-04-21T08:14:48.837Z,13.13
2023-04-21T08:17:16.362Z,12.99
2023-04-21T08:19:43.232Z,12.69
2023-04-21T08:22:10.111Z,12.88
2023-04-21T08:24:37.020Z,13.08
2023-04-21T08:27:03.975Z,13.32
2023-04-21T08:29:30.995Z,13.56
2023-04-21T08:31:57.804Z,13.68
2023-04-21T08:34:27.209Z,13.78
2023-04-21T08:36:55.471Z,13.95
2023-04-21T08:39:22.424Z,14.16
2023-04-21T08:41:50.021Z,14.15
2023-04-21T08:44:16.852Z,13.97
2023-04-21T08:46:45.802Z,14.03
2023-04-21T08:49:13.505Z,14.08
2023-04-21T08:51:40.530Z,13.96
2023-04-21T08:54:07.362Z,13.95
2023-04-21T08:56:34.273Z,14.27
2023-04-21T08:59:01.061Z,14.16
2023-04-21T09:01:28.285Z,14.28
2023-04-21T09:03:55.250Z,14.39
2023-04-21T09:06:22.566Z,14.38
2023-04-21T09:08:56.455Z,14.52
2023-04-21T09:11:23.700Z,14.61
2023-04-21T09:13:50.771Z,14.50
2023-04-21T09:16:22.237Z,14.75
2023-04-21T09:18:50.228Z,14.94
2023-04-21T09:21:19.019Z,14.96
2023-04-21T09:23:51.483Z,15.17
2023-04-21T09:26:21.969Z,15.12
2023-04-21T09:28:50.089Z,15.01
2023-04-21T09:31:22.071Z,15.20
2023-04-21T09:34:00.135Z,15.14
2023-04-21T09:36:29.731Z,15.11
2023-04-21T09:41:33.764Z,15.46
2023-04-21T09:44:02.150Z,15.61
2023-04-21T09:46:29.909Z,15.87
2023-04-21T09:48:57.421Z,15.98
2023-04-21T09:51:42.713Z,15.83
2023-04-21T09:56:58.042Z,15.86
2023-04-21T09:59:38.282Z,15.99
2023-04-21T10:02:07.911Z,15.90
2023-04-21T10:04:37.005Z,15.95
2023-04-21T10:07:04.120Z,16.04
2023-04-21T10:09:39.773Z,15.92
2023-04-21T10:12:09.002Z,16.25
2023-04-21T10:14:36.847Z,16.40
2023-04-21T10:17:06.213Z,16.46
2023-04-21T10:19:39.960Z,16.58
2023-04-21T10:22:09.248Z,16.77
2023-04-21T10:24:40.224Z,16.62
2023-04-21T10:27:12.005Z,16.88
2023-04-21T10:29:54.766Z,16.95
2023-04-21T10:32:43.265Z,17.30
2023-04-21T10:35:22.089Z,17.38
2023-04-21T10:37:50.716Z,17.64
2023-04-21T10:40:44.130Z,17.67
2023-04-21T10:43:44.379Z,17.50
2023-04-21T10:46:35.562Z,17.77
2023-04-21T10:49:07.569Z,17.92
2023-04-21T10:51:56.321Z,17.95
2023-04-21T10:54:23.253Z,18.01
2023-04-21T10:56:52.705Z,18.00
2023-04-21T10:59:19.843Z,17.98
2023-04-21T11:01:46.832Z,18.05
2023-04-21T11:04:18.192Z,18.01
2023-04-21T11:07:08.519Z,18.19
2023-04-21T11:09:36.263Z,18.12
2023-04-21T11:12:11.739Z,18.38
2023-04-21T11:14:42.126Z,18.61
2023-04-21T11:17:13.856Z,18.60
2023-04-21T11:19:40.865Z,18.61
2023-04-21T11:22:08.447Z,18.67
2023-04-21T11:24:35.322Z,18.60
2023-04-21T11:27:02.719Z,18.60
2023-04-21T11:29:30.129Z,18.73
2023-04-21T11:31:57.287Z,18.85
2023-04-21T11:34:25.861Z,18.95
2023-04-21T11:36:53.297Z,18.91
2023-04-21T11:39:22.316Z,19.12
2023-04-21T11:41:51.001Z,19.15
2023-04-21T11:44:35.862Z,19.22
2023-04-21T11:47:20.390Z,19.11
2023-04-21T11:49:48.223Z,19.22
2023-04-21T11:52:25.996Z,19.31
2023-04-21T11:55:13.243Z,19.38
2023-04-21T11:57:41.634Z,19.39
2023-04-21T12:00:13.673Z,19.33
2023-04-21T12:02:40.807Z,19.29
2023-04-21T12:05:12.923Z,19.17
2023-04-21T12:07:43.285Z,18.92
2023-04-21T12:10:12.347Z,18.50
2023-04-21T12:12:40.081Z,18.51
2023-04-21T12:15:08.300Z,18.54
2023-04-21T12:17:40.642Z,18.71
2023-04-21T12:20:08.998Z,18.72
2023-04-21T12:22:37.637Z,18.81
2023-04-21T12:25:06.434Z,18.95
2023-04-21T12:27:33.336Z,19.23
2023-04-21T12:30:00.183Z,19.38
2023-04-21T12:32:27.185Z,19.43
2023-04-21T12:34:53.902Z,19.58
2023-04-21T12:37:21.024Z,19.47
2023-04-21T12:39:47.913Z,19.58
2023-04-21T12:42:14.808Z,19.47
2023-04-21T12:44:41.867Z,19.53
2023-04-21T12:47:08.777Z,19.58
2023-04-21T12:49:35.816Z,19.60
2023-04-21T12:52:05.810Z,19.69
2023-04-21T12:54:32.608Z,19.49
2023-04-21T12:56:59.623Z,19.53
2023-04-21T12:59:26.574Z,19.55
2023-04-21T13:01:54.046Z,19.56
2023-04-21T13:04:22.305Z,19.64
2023-04-21T13:06:49.436Z,19.66
2023-04-21T13:09:17.306Z,19.78
2023-04-21T13:11:44.105Z,19.80
2023-04-21T13:14:11.208Z,19.94
2023-04-21T13:16:38.253Z,20.10
2023-04-21T13:19:05.651Z,19.90
2023-04-21T13:21:33.037Z,19.91
2023-04-21T13:23:59.951Z,20.09
2023-04-21T13:26:27.820Z,20.32
2023-04-21T13:28:55.085Z,20.38
2023-04-21T13:31:22.051Z,20.35
2023-04-21T13:33:49.757Z,20.17
2023-04-21T13:36:17.459Z,20.30
2023-04-21T13:38:44.521Z,20.55
2023-04-21T13:41:11.827Z,20.51
2023-04-21T13:43:38.852Z,20.67
2023-04-21T13:46:06.179Z,20.64
2023-04-21T13:48:32.890Z,20.60
2023-04-21T13:50:59.771Z,20.55
2023-04-21T13:53:27.171Z,20.73
2023-04-21T13:55:57.818Z,20.68
2023-04-21T13:58:24.612Z,20.68
2023-04-21T14:00:51.678Z,20.88
2023-04-21T14:03:19.062Z,20.96
2023-04-21T14:05:46.245Z,21.02
2023-04-21T14:08:13.034Z,21.23
2023-04-21T14:10:39.910Z,21.16
2023-04-21T14:13:07.278Z,21.16
2023-04-21T14:15:34.820Z,21.24
2023-04-21T14:18:01.666Z,21.15
2023-04-21T14:20:28.735Z,21.27
2023-04-21T14:22:55.593Z,21.21
2023-04-21T14:25:22.825Z,21.02
2023-04-21T14:27:49.667Z,21.19
2023-04-21T14:30:16.839Z,21.22
2023-04-21T14:32:45.966Z,21.08
2023-04-21T14:35:13.214Z,21.36
2023-04-21T14:37:41.631Z,21.45
2023-04-21T14:40:10.234Z,21.57
2023-04-21T14:42:37.023Z,21.62
2023-04-21T14:45:04.386Z,21.41
2023-04-21T14:47:31.431Z,21.49
2023-04-21T14:49:58.607Z,21.33
2023-04-21T14:52:27.208Z,21.06
2023-04-21T14:54:54.131Z,21.02
2023-04-21T14:57:22.303Z,20.78
2023-04-21T14:59:53.555Z,20.97
2023-04-21T15:02:21.805Z,21.07
2023-04-21T15:04:49.541Z,21.01
2023-04-21T15:07:19.900Z,20.95
2023-04-21T15:09:51.645Z,21.05
2023-04-21T15:12:18.734Z,21.00
2023-04-21T15:14:45.530Z,20.84
2023-04-21T15:17:12.721Z,20.68
2023-04-21T15:19:39.477Z,20.54
2023-04-21T15:22:06.366Z,20.71
2023-04-21T15:24:33.475Z,20.84
2023-04-21T15:27:00.308Z,20.89
2023-04-21T15:29:30.466Z,20.78
2023-04-21T15:31:57.780Z,21.09
2023-04-21T15:34:25.330Z,21.02
2023-04-21T15:36:52.398Z,21.02
2023-04-21T15:39:19.300Z,21.12
2023-04-21T15:41:46.514Z,20.97
2023-04-21T15:44:13.470Z,20.92
2023-04-21T15:46:40.652Z,20.96
2023-04-21T15:49:07.675Z,20.87
2023-04-21T15:51:36.629Z,20.72
2023-04-21T15:54:04.908Z,20.55
2023-04-21T15:56:32.024Z,20.32
2023-04-21T15:58:59.142Z,20.25
2023-04-21T16:01:26.124Z,20.43
2023-04-21T16:03:53.733Z,20.49
2023-04-21T16:06:21.872Z,20.33
2023-04-21T16:08:48.724Z,20.22
2023-04-21T16:11:16.158Z,20.09
2023-04-21T16:13:43.122Z,19.96
2023-04-21T16:16:10.578Z,19.90
2023-04-21T16:18:37.650Z,19.95
2023-04-21T16:21:04.801Z,19.92
2023-04-21T16:23:32.414Z,19.73
2023-04-21T16:26:00.349Z,19.60
2023-04-21T16:28:30.246Z,19.74
2023-04-21T16:30:57.167Z,19.84
2023-04-21T16:33:24.120Z,19.86
2023-04-21T16:35:52.523Z,19.87
2023-04-21T16:38:20.098Z,19.74
2023-04-21T16:40:47.272Z,19.66
2023-04-21T16:43:14.212Z,19.62
2023-04-21T16:45:41.226Z,19.49
2023-04-21T16:48:08.648Z,19.55
2023-04-21T16:50:36.112Z,19.36
2023-04-21T16:53:03.101Z,19.27
2023-04-21T16:55:31.706Z,19.38
2023-04-21T16:57:59.613Z,19.35
2023-04-21T17:00:27.507Z,19.38
2023-04-21T17:02:55.279Z,19.33
2023-04-21T17:05:23.532Z,19.21
2023-04-21T17:07:51.345Z,19.28
2023-04-21T17:10:18.803Z,19.38
2023-04-21T17:12:46.545Z,19.33
2023-04-21T17:15:13.585Z,19.28
2023-04-21T17:17:43.343Z,19.20
2023-04-21T17:20:12.022Z,19.15
2023-04-21T17:22:40.152Z,19.15
2023-04-21T17:25:08.415Z,19.05
2023-04-21T17:27:36.750Z,18.99
2023-04-21T17:30:08.085Z,18.98
2023-04-21T17:32:35.968Z,18.84
2023-04-21T17:35:05.124Z,18.72
2023-04-21T17:37:32.056Z,18.70
2023-04-21T17:40:02.444Z,18.66
2023-04-21T17:42:30.082Z,18.61
2023-04-21T17:44:56.860Z,18.51
2023-04-21T17:47:23.598Z,18.56
2023-04-21T17:49:50.893Z,18.42
2023-04-21T17:52:18.533Z,18.37
2023-04-21T17:54:46.566Z,18.30
2023-04-21T17:57:13.498Z,18.12
2023-04-21T17:59:40.687Z,18.06
2023-04-21T18:02:07.879Z,18.06
2023-04-21T18:04:35.246Z,17.99
2023-04-21T18:07:03.118Z,18.01
2023-04-21T18:09:32.838Z,17.96
2023-04-21T18:12:00.285Z,17.93
2023-04-21T18:14:27.548Z,17.82
2023-04-21T18:16:54.812Z,17.74
2023-04-21T18:19:21.689Z,17.66
2023-04-21T18:21:48.384Z,17.68
2023-04-21T18:24:15.301Z,17.66
2023-04-21T18:26:42.348Z,17.60
2023-04-21T18:29:09.231Z,17.70
2023-04-21T18:31:36.468Z,17.65
2023-04-21T18:34:03.362Z,17.56
2023-04-21T18:36:32.916Z,17.48
2023-04-21T18:39:00.630Z,17.43
2023-04-21T18:41:27.842Z,17.36
2023-04-21T18:43:55.008Z,17.48
2023-04-21T18:46:22.435Z,17.37
2023-04-21T18:48:49.262Z,17.28
2023-04-21T18:51:16.087Z,17.24
2023-04-21T18:53:43.564Z,17.23
2023-04-21T18:56:10.359Z,17.18
2023-04-21T18:58:37.467Z,17.18
2023-04-21T19:01:04.228Z,17.05
2023-04-21T19:03:31.463Z,16.99
2023-04-21T19:05:58.996Z,16.89
2023-04-21T19:08:40.706Z,16.92
2023-04-21T19:11:08.109Z,16.76
2023-04-21T19:13:34.823Z,16.67
2023-04-21T19:16:01.943Z,16.67
2023-04-21T19:18:29.093Z,16.55
2023-04-21T19:20:56.285Z,16.44
2023-04-21T19:23:23.588Z,16.40
2023-04-21T19:25:54.840Z,16.34
2023-04-21T19:28:21.937Z,16.42
2023-04-21T19:30:49.181Z,16.38
2023-04-21T19:33:16.664Z,16.39
2023-04-21T19:35:43.608Z,16.30
2023-04-21T19:38:10.646Z,16.35
2023-04-21T19:40:37.513Z,16.28
2023-04-21T19:43:05.212Z,16.19
2023-04-21T19:45:32.021Z,16.24
2023-04-21T19:47:59.019Z,16.05
2023-04-21T19:50:25.863Z,15.92
2023-04-21T19:52:52.711Z,15.94
2023-04-21T19:55:19.731Z,15.89
2023-04-21T19:57:46.568Z,15.91
2023-04-21T20:00:14.472Z,15.98
2023-04-21T20:02:41.533Z,15.80
2023-04-21T20:05:09.689Z,15.74
2023-04-21T20:07:37.500Z,15.78
2023-04-21T20:10:07.989Z,15.66
2023-04-21T20:12:34.812Z,15.56
2023-04-21T20:15:02.132Z,15.57
2023-04-21T20:17:29.601Z,15.54
2023-04-21T20:19:56.639Z,15.46
2023-04-21T20:22:23.829Z,15.41
2023-04-21T20:24:52.267Z,15.29
2023-04-21T20:27:19.180Z,15.36
2023-04-21T20:29:46.976Z,15.24
2023-04-21T20:32:14.202Z,15.15
2023-04-21T20:34:41.252Z,15.07
2023-04-21T20:37:08.320Z,15.11
2023-04-21T20:39:35.035Z,15.09
2023-04-21T20:42:12.710Z,15.10
2023-04-21T20:44:41.564Z,15.06
2023-04-21T20:47:08.728Z,14.99
2023-04-21T20:49:35.987Z,14.99
2023-04-21T20:52:03.060Z,14.79
2023-04-21T20:54:29.840Z,14.91
2023-04-21T20:56:56.572Z,14.66
2023-04-21T20:59:23.351Z,14.60
2023-04-21T21:01:50.141Z,14.71
2023-04-21T21:04:17.345Z,14.79
2023-04-21T21:06:44.426Z,14.61
2023-04-21T21:09:11.955Z,14.47
2023-04-21T21:11:38.807Z,14.47
2023-04-21T21:14:05.850Z,14.46
2023-04-21T21:16:32.862Z,14.51
2023-04-21T21:18:59.798Z,14.43
2023-04-21T21:21:26.787Z,14.44
2023-04-21T21:23:53.499Z,14.31
2023-04-21T21:26:20.824Z,14.34
2023-04-21T21:28:47.761Z,14.35
2023-04-21T21:31:14.863Z,14.28
2023-04-21T21:33:41.779Z,14.21
2023-04-21T21:36:08.647Z,14.17
2023-04-21T21:38:35.457Z,14.17
2023-04-21T21:41:02.217Z,13.97
2023-04-21T21:43:29.071Z,13.94
2023-04-21T21:45:56.019Z,13.94
2023-04-21T21:48:22.860Z,13.93
2023-04-21T21:50:49.677Z,13.89
2023-04-21T21:53:16.438Z,13.90
2023-04-21T21:55:43.253Z,13.84
2023-04-21T21:58:10.262Z,13.76
2023-04-21T22:00:39.335Z,13.64
2023-04-21T22:03:06.661Z,13.66
2023-04-21T22:05:34.418Z,13.40
2023-04-21T22:08:01.197Z,13.48
2023-04-21T22:10:28.211Z,13.44
2023-04-21T22:12:54.852Z,13.45
2023-04-21T22:15:21.745Z,13.30
2023-04-21T22:17:48.584Z,13.25
2023-04-21T22:20:15.492Z,13.28
2023-04-21T22:22:42.263Z,13.22
2023-04-21T22:25:11.118Z,13.32
2023-04-21T22:27:37.863Z,13.15
2023-04-21T22:30:05.647Z,13.02
2023-04-21T22:32:32.662Z,13.20
2023-04-21T22:35:00.021Z,13.16
2023-04-21T22:37:27.657Z,13.02
2023-04-21T22:39:57.986Z,12.88
2023-04-21T22:42:24.727Z,12.84
2023-04-21T22:44:51.419Z,12.83
2023-04-21T22:47:18.146Z,12.77
2023-04-21T22:49:44.976Z,12.71
2023-04-21T22:52:11.886Z,12.90
2023-04-21T22:54:38.713Z,12.83
2023-04-21T22:57:06.127Z,13.05
2023-04-21T22:59:33.220Z,12.93
2023-04-21T23:02:00.328Z,12.88
2023-04-21T23:04:27.117Z,12.83
2023-04-21T23:06:54.084Z,12.61
2023-04-21T23:09:20.980Z,12.58
2023-04-21T23:11:47.680Z,12.57
2023-04-21T23:14:14.435Z,12.52
2023-04-21T23:16:41.304Z,12.47
2023-04-21T23:19:08.075Z,12.40
2023-04-21T23:21:35.082Z,12.24
2023-04-21T23:24:01.948Z,12.21
2023-04-21T23:26:28.640Z,12.21
2023-04-21T23:28:55.333Z,12.08
2023-04-21T23:31:22.279Z,12.16
2023-04-21T23:33:49.062Z,12.24
2023-04-21T23:36:15.907Z,12.16
2023-04-21T23:38:42.586Z,11.87
2023-04-21T23:41:09.334Z,11.62
2023-04-21T23:43:37.560Z,11.63
2023-04-21T23:46:04.540Z,11.67
2023-04-21T23:48:31.318Z,11.39
2023-04-21T23:50:58.068Z,11.36
2023-04-21T23:53:25.197Z,11.19
2023-04-21T23:55:52.127Z,11.17
2023-04-21T23:58:18.790Z,11.10
